createdAt,value
2017-01-28T00:00:13.180Z,0
2017-01-28T00:01:18.382Z,0
2017-01-28T00:02:22.663Z,0
2017-01-28T00:03:27.870Z,0
2017-01-28T00:04:34.038Z,0
2017-01-28T00:05:39.238Z,0
2017-01-28T00:06:45.407Z,0
2017-01-28T00:07:50.581Z,0
2017-01-28T00:08:56.742Z,0
2017-01-28T00:10:00.994Z,0
2017-01-28T00:11:06.169Z,0
2017-01-28T00:12:11.366Z,0
2017-01-28T00:13:16.573Z,0
2017-01-28T00:14:21.775Z,0
2017-01-28T00:15:28.062Z,0
2017-01-28T00:16:34.227Z,0
2017-01-28T00:17:40.397Z,0
2017-01-28T00:18:44.651Z,0
2017-01-28T00:19:48.860Z,0
2017-01-28T00:20:55.047Z,0
2017-01-28T00:22:00.253Z,0
2017-01-28T00:23:05.437Z,0
2017-01-28T00:24:10.600Z,0
2017-01-28T00:25:14.840Z,0
2017-01-28T00:26:19.084Z,0
2017-01-28T00:27:25.254Z,0
2017-01-28T00:28:31.437Z,0
2017-01-28T00:29:36.601Z,0
2017-01-28T00:30:42.771Z,0
2017-01-28T00:31:48.940Z,0
2017-01-28T00:32:55.124Z,0
2017-01-28T00:34:01.298Z,0
2017-01-28T00:35:07.476Z,0
2017-01-28T00:36:13.651Z,0
2017-01-28T00:37:18.850Z,0
2017-01-28T00:38:24.193Z,0
2017-01-28T00:39:30.325Z,0
2017-01-28T00:40:36.589Z,0
2017-01-28T00:41:41.798Z,0
2017-01-28T00:42:47.004Z,0
2017-01-28T00:43:53.223Z,0
2017-01-28T00:44:58.390Z,0
2017-01-28T00:46:04.555Z,0
2017-01-28T00:47:09.764Z,0
2017-01-28T00:48:15.033Z,0
2017-01-28T00:49:21.182Z,0
2017-01-28T00:50:27.356Z,0
2017-01-28T00:51:31.572Z,0
2017-01-28T00:52:36.744Z,0
2017-01-28T00:53:42.961Z,0
2017-01-28T00:54:49.127Z,0
2017-01-28T00:55:55.389Z,0
2017-01-28T00:57:00.503Z,0
2017-01-28T00:58:04.704Z,0
2017-01-28T00:59:10.868Z,0
2017-01-28T01:00:15.078Z,0
2017-01-28T01:01:20.296Z,0
2017-01-28T01:02:26.461Z,0
2017-01-28T01:03:31.683Z,0
2017-01-28T01:04:36.893Z,0
2017-01-28T01:05:43.073Z,0
2017-01-28T01:06:49.239Z,0
2017-01-28T01:07:54.408Z,0
2017-01-28T01:08:59.589Z,0
2017-01-28T01:10:04.824Z,0
2017-01-28T01:11:10.952Z,0
2017-01-28T01:12:16.150Z,0
2017-01-28T01:13:22.316Z,0
2017-01-28T01:14:28.491Z,0
2017-01-28T01:15:33.759Z,0
2017-01-28T01:16:38.974Z,0
2017-01-28T01:17:45.143Z,0
2017-01-28T01:18:51.353Z,0
2017-01-28T01:19:56.536Z,0
2017-01-28T01:21:01.798Z,0
2017-01-28T01:22:06.068Z,0
2017-01-28T01:23:12.235Z,0
2017-01-28T01:24:18.481Z,0
2017-01-28T01:25:23.687Z,0
2017-01-28T01:26:28.932Z,0
2017-01-28T01:27:35.122Z,0
2017-01-28T01:28:39.360Z,0
2017-01-28T01:29:43.559Z,0
2017-01-28T01:30:49.723Z,0
2017-01-28T01:31:52.982Z,0
2017-01-28T01:32:59.160Z,0
2017-01-28T01:34:05.335Z,0
2017-01-28T01:35:11.524Z,0
2017-01-28T01:36:17.730Z,0
2017-01-28T01:37:23.896Z,0
2017-01-28T01:38:30.104Z,0
2017-01-28T01:39:36.275Z,0
2017-01-28T01:40:42.454Z,0
2017-01-28T01:41:48.643Z,0
2017-01-28T01:42:54.814Z,0
2017-01-28T01:44:00.018Z,0
2017-01-28T01:45:03.348Z,0
2017-01-28T01:46:09.525Z,0
2017-01-28T01:47:14.726Z,0
2017-01-28T01:48:20.898Z,0
2017-01-28T01:49:27.089Z,0
2017-01-28T01:50:32.283Z,0
2017-01-28T01:51:37.492Z,0
2017-01-28T01:52:42.701Z,0
2017-01-28T01:53:48.967Z,0
2017-01-28T01:54:54.140Z,0
2017-01-28T01:56:00.396Z,0
2017-01-28T01:57:05.609Z,0
2017-01-28T01:58:09.833Z,0
2017-01-28T01:59:12.108Z,0
2017-01-28T02:00:18.264Z,0
2017-01-28T02:01:24.446Z,0
2017-01-28T02:02:30.646Z,0
2017-01-28T02:03:36.816Z,0
2017-01-28T02:04:42.024Z,0
2017-01-28T02:05:47.231Z,0
2017-01-28T02:06:52.423Z,0
2017-01-28T02:07:57.646Z,0
2017-01-28T02:09:02.839Z,0
2017-01-28T02:10:08.054Z,0
2017-01-28T02:11:13.244Z,0
2017-01-28T02:12:17.453Z,0
2017-01-28T02:13:22.628Z,0
2017-01-28T02:14:27.824Z,0
2017-01-28T02:15:34.075Z,0
2017-01-28T02:16:39.368Z,0
2017-01-28T02:17:44.489Z,0
2017-01-28T02:18:50.692Z,0
2017-01-28T02:19:56.860Z,0
2017-01-28T02:21:03.028Z,0
2017-01-28T02:22:08.232Z,0
2017-01-28T02:23:14.403Z,0
2017-01-28T02:24:18.630Z,0
2017-01-28T02:25:23.832Z,0
2017-01-28T02:26:30.009Z,0
2017-01-28T02:27:35.261Z,0
2017-01-28T02:28:41.423Z,0
2017-01-28T02:29:46.616Z,0
2017-01-28T02:30:52.794Z,0
2017-01-28T02:31:58.955Z,0
2017-01-28T02:33:05.118Z,0
2017-01-28T02:34:10.349Z,0
2017-01-28T02:35:16.579Z,0
2017-01-28T02:36:22.752Z,0
2017-01-28T02:37:28.961Z,0
2017-01-28T02:38:34.158Z,0
2017-01-28T02:39:40.389Z,0
2017-01-28T02:40:45.559Z,0
2017-01-28T02:41:51.729Z,0
2017-01-28T02:42:57.913Z,0
2017-01-28T02:44:04.086Z,0
2017-01-28T02:45:10.250Z,0
2017-01-28T02:46:15.421Z,0
2017-01-28T02:47:21.592Z,0
2017-01-28T02:48:27.760Z,0
2017-01-28T02:49:32.961Z,0
2017-01-28T02:50:39.130Z,0
2017-01-28T02:51:44.337Z,0
2017-01-28T02:52:50.501Z,0
2017-01-28T02:53:53.842Z,0
2017-01-28T02:54:59.074Z,0
2017-01-28T02:56:04.236Z,0
2017-01-28T02:57:08.453Z,0
2017-01-28T02:58:13.645Z,0
2017-01-28T02:59:19.813Z,0
2017-01-28T03:00:24.053Z,0
2017-01-28T03:01:30.226Z,0
2017-01-28T03:02:36.380Z,0
2017-01-28T03:03:42.548Z,0
2017-01-28T03:04:47.725Z,0
2017-01-28T03:05:52.919Z,0
2017-01-28T03:06:58.125Z,0
2017-01-28T03:08:03.298Z,0
2017-01-28T03:09:09.509Z,0
2017-01-28T03:10:13.726Z,0
2017-01-28T03:11:19.908Z,0
2017-01-28T03:12:25.117Z,0
2017-01-28T03:13:31.280Z,0
2017-01-28T03:14:36.480Z,0
2017-01-28T03:15:42.644Z,0
2017-01-28T03:16:48.812Z,0
2017-01-28T03:17:55.003Z,0
2017-01-28T03:18:59.208Z,0
2017-01-28T03:20:05.424Z,0
2017-01-28T03:21:11.545Z,0
2017-01-28T03:22:16.719Z,0
2017-01-28T03:23:22.886Z,0
2017-01-28T03:24:27.119Z,0
2017-01-28T03:25:32.310Z,0
2017-01-28T03:26:37.647Z,0
2017-01-28T03:27:42.809Z,0
2017-01-28T03:28:47.011Z,0
2017-01-28T03:29:51.253Z,0
2017-01-28T03:30:54.491Z,0
2017-01-28T03:31:59.692Z,0
2017-01-28T03:33:04.861Z,0
2017-01-28T03:34:10.127Z,0
2017-01-28T03:35:15.329Z,0
2017-01-28T03:36:19.581Z,0
2017-01-28T03:37:23.803Z,0
2017-01-28T03:38:29.976Z,0
2017-01-28T03:39:33.202Z,0
2017-01-28T03:40:38.411Z,0
2017-01-28T03:41:43.617Z,0
2017-01-28T03:42:49.795Z,0
2017-01-28T03:43:55.980Z,0
2017-01-28T03:45:01.187Z,0
2017-01-28T03:46:07.366Z,0
2017-01-28T03:47:13.500Z,0
2017-01-28T03:48:18.691Z,0
2017-01-28T03:49:24.865Z,0
2017-01-28T03:50:30.068Z,0
2017-01-28T03:51:35.241Z,0
2017-01-28T03:52:39.528Z,0
2017-01-28T03:53:45.668Z,0
2017-01-28T03:54:51.846Z,0
2017-01-28T03:55:57.996Z,0
2017-01-28T03:57:04.171Z,0
2017-01-28T03:58:10.405Z,0
2017-01-28T03:59:16.577Z,0
2017-01-28T04:00:21.772Z,0
2017-01-28T04:01:26.950Z,0
2017-01-28T04:02:33.121Z,0
2017-01-28T04:03:37.354Z,0
2017-01-28T04:04:43.508Z,0
2017-01-28T04:05:47.698Z,0
2017-01-28T04:06:52.868Z,0
2017-01-28T04:07:57.111Z,0
2017-01-28T04:09:02.311Z,0
2017-01-28T04:10:07.512Z,0
2017-01-28T04:11:12.712Z,0
2017-01-28T04:12:16.914Z,0
2017-01-28T04:13:23.080Z,0
2017-01-28T04:14:28.245Z,0
2017-01-28T04:15:34.447Z,0
2017-01-28T04:16:40.630Z,0
2017-01-28T04:17:47.007Z,0
2017-01-28T04:18:52.204Z,0
2017-01-28T04:19:58.384Z,0
2017-01-28T04:21:04.590Z,0
2017-01-28T04:22:10.763Z,0
2017-01-28T04:23:16.931Z,0
2017-01-28T04:24:23.106Z,0
2017-01-28T04:25:28.277Z,0
2017-01-28T04:26:33.480Z,0
2017-01-28T04:27:37.686Z,0
2017-01-28T04:28:43.844Z,0
2017-01-28T04:29:50.006Z,0
2017-01-28T04:30:54.213Z,0
2017-01-28T04:31:58.436Z,0
2017-01-28T04:33:02.663Z,0
2017-01-28T04:34:07.857Z,0
2017-01-28T04:35:14.011Z,0
2017-01-28T04:36:20.281Z,0
2017-01-28T04:37:24.537Z,0
2017-01-28T04:38:29.923Z,0
2017-01-28T04:39:33.101Z,0
2017-01-28T04:40:39.266Z,0
2017-01-28T04:41:45.429Z,0
2017-01-28T04:42:50.617Z,0
2017-01-28T04:43:56.792Z,0
2017-01-28T04:45:02.960Z,0
2017-01-28T04:46:08.158Z,0
2017-01-28T04:47:11.540Z,0
2017-01-28T04:48:17.667Z,0
2017-01-28T04:49:22.876Z,0
2017-01-28T04:50:28.148Z,0
2017-01-28T04:51:34.327Z,0
2017-01-28T04:52:39.519Z,0
2017-01-28T04:53:44.715Z,0
2017-01-28T04:54:50.886Z,0
2017-01-28T04:55:57.061Z,0
2017-01-28T04:57:03.222Z,0
2017-01-28T04:58:09.439Z,0
2017-01-28T04:59:14.606Z,0
2017-01-28T05:00:19.810Z,0
2017-01-28T05:01:25.103Z,0
2017-01-28T05:02:31.270Z,0
2017-01-28T05:03:37.445Z,0
2017-01-28T05:04:42.644Z,0
2017-01-28T05:05:48.820Z,0
2017-01-28T05:06:55.009Z,0
2017-01-28T05:08:01.176Z,0
2017-01-28T05:09:05.373Z,0
2017-01-28T05:10:10.569Z,0
2017-01-28T05:11:14.795Z,0
2017-01-28T05:12:19.987Z,0
2017-01-28T05:13:24.194Z,0
2017-01-28T05:14:30.449Z,0
2017-01-28T05:15:33.716Z,0
2017-01-28T05:16:38.983Z,0
2017-01-28T05:17:43.196Z,0
2017-01-28T05:18:48.395Z,0
2017-01-28T05:19:53.597Z,0
2017-01-28T05:20:59.763Z,0
2017-01-28T05:22:04.962Z,0
2017-01-28T05:23:10.169Z,0
2017-01-28T05:24:16.392Z,0
2017-01-28T05:25:22.551Z,0
2017-01-28T05:26:27.755Z,0
2017-01-28T05:27:33.930Z,0
2017-01-28T05:28:38.159Z,0
2017-01-28T05:29:44.333Z,0
2017-01-28T05:30:50.532Z,0
2017-01-28T05:31:56.696Z,0
2017-01-28T05:33:01.902Z,0
2017-01-28T05:34:06.098Z,0
2017-01-28T05:35:11.302Z,0
2017-01-28T05:36:17.466Z,0
2017-01-28T05:37:22.660Z,0
2017-01-28T05:38:26.870Z,0
2017-01-28T05:39:32.075Z,0
2017-01-28T05:40:38.238Z,0
2017-01-28T05:41:42.548Z,0
2017-01-28T05:42:45.846Z,0
2017-01-28T05:43:52.036Z,0
2017-01-28T05:44:58.209Z,0
2017-01-28T05:46:04.365Z,0
2017-01-28T05:47:09.600Z,0
2017-01-28T05:48:14.799Z,0
2017-01-28T05:49:20.006Z,0
2017-01-28T05:50:25.204Z,0
2017-01-28T05:51:30.381Z,0
2017-01-28T05:52:35.584Z,0
2017-01-28T05:53:40.755Z,0
2017-01-28T05:54:45.007Z,0
2017-01-28T05:55:51.218Z,0
2017-01-28T05:56:57.459Z,0
2017-01-28T05:58:03.599Z,0
2017-01-28T05:59:08.795Z,0
2017-01-28T06:00:14.964Z,0
2017-01-28T06:01:21.131Z,0
2017-01-28T06:02:26.334Z,0
2017-01-28T06:03:31.513Z,0
2017-01-28T06:04:35.705Z,0
2017-01-28T06:05:41.874Z,0
2017-01-28T06:06:48.031Z,0
2017-01-28T06:07:51.295Z,0
2017-01-28T06:08:56.499Z,0
2017-01-28T06:10:00.762Z,0
2017-01-28T06:11:05.933Z,0
2017-01-28T06:12:12.125Z,0
2017-01-28T06:13:16.355Z,0
2017-01-28T06:14:21.552Z,0
2017-01-28T06:15:26.748Z,0
2017-01-28T06:16:31.948Z,0
2017-01-28T06:17:37.152Z,0
2017-01-28T06:18:43.321Z,0
2017-01-28T06:19:48.514Z,0
2017-01-28T06:20:52.714Z,0
2017-01-28T06:21:56.951Z,0
2017-01-28T06:23:02.153Z,0
2017-01-28T06:24:08.310Z,0
2017-01-28T06:25:13.502Z,0
2017-01-28T06:26:18.718Z,0
2017-01-28T06:27:22.954Z,0
2017-01-28T06:28:28.285Z,0
2017-01-28T06:29:33.506Z,0
2017-01-28T06:30:38.708Z,0
2017-01-28T06:31:42.919Z,0
2017-01-28T06:32:49.110Z,0
2017-01-28T06:33:54.339Z,0
2017-01-28T06:34:56.637Z,0
2017-01-28T06:36:02.780Z,0
2017-01-28T06:37:07.945Z,0
2017-01-28T06:38:14.189Z,0
2017-01-28T06:39:19.381Z,0
2017-01-28T06:40:23.587Z,0
2017-01-28T06:41:27.845Z,0
2017-01-28T06:42:34.123Z,0
2017-01-28T06:43:40.294Z,0
2017-01-28T06:44:45.488Z,0
2017-01-28T06:45:51.669Z,0
2017-01-28T06:46:57.853Z,0
2017-01-28T06:48:02.209Z,0
2017-01-28T06:49:05.464Z,0
2017-01-28T06:50:11.710Z,0
2017-01-28T06:51:16.875Z,0
2017-01-28T06:52:23.035Z,0
2017-01-28T06:53:29.204Z,0
2017-01-28T06:54:34.372Z,0
2017-01-28T06:55:39.550Z,0
2017-01-28T06:56:44.752Z,0
2017-01-28T06:57:49.952Z,0
2017-01-28T06:58:56.118Z,5
2017-01-28T07:00:01.295Z,5
2017-01-28T07:01:05.529Z,5
2017-01-28T07:02:11.738Z,10
2017-01-28T07:03:15.933Z,10
2017-01-28T07:04:22.106Z,10
2017-01-28T07:05:28.280Z,10
2017-01-28T07:06:33.479Z,15
2017-01-28T07:07:39.671Z,15
2017-01-28T07:09:50.078Z,15
2017-01-28T07:10:56.297Z,15
2017-01-28T07:12:01.495Z,15
2017-01-28T07:13:06.697Z,20
2017-01-28T07:14:10.896Z,15
2017-01-28T07:15:16.200Z,15
2017-01-28T07:16:21.383Z,15
2017-01-28T07:17:27.547Z,15
2017-01-28T07:18:33.717Z,20
2017-01-28T07:19:38.918Z,20
2017-01-28T07:20:45.100Z,20
2017-01-28T07:21:51.260Z,25
2017-01-28T07:22:56.477Z,25
2017-01-28T07:24:02.649Z,30
2017-01-28T07:25:08.813Z,30
2017-01-28T07:26:14.993Z,35
2017-01-28T07:27:20.170Z,35
2017-01-28T07:28:26.331Z,35
2017-01-28T07:29:31.529Z,35
2017-01-28T07:30:37.702Z,40
2017-01-28T07:31:42.872Z,40
2017-01-28T07:32:49.128Z,40
2017-01-28T07:33:55.299Z,45
2017-01-28T07:34:59.623Z,45
2017-01-28T07:36:04.819Z,50
2017-01-28T07:37:10.018Z,50
2017-01-28T07:38:15.223Z,55
2017-01-28T07:39:20.397Z,60
2017-01-28T07:40:25.607Z,60
2017-01-28T07:41:31.804Z,65
2017-01-28T07:42:37.018Z,65
2017-01-28T07:43:42.216Z,70
2017-01-28T07:44:47.427Z,70
2017-01-28T07:45:52.620Z,75
2017-01-28T07:46:58.831Z,75
2017-01-28T07:48:04.033Z,80
2017-01-28T07:49:09.237Z,80
2017-01-28T07:50:15.421Z,85
2017-01-28T07:51:19.660Z,90
2017-01-28T07:52:24.861Z,95
2017-01-28T07:53:29.064Z,105
2017-01-28T07:54:33.270Z,115
2017-01-28T07:55:39.480Z,140
2017-01-28T07:56:45.660Z,145
2017-01-28T07:57:51.830Z,150
2017-01-28T07:58:57.010Z,150
2017-01-28T08:00:02.271Z,140
2017-01-28T08:01:08.541Z,130
2017-01-28T08:02:14.819Z,125
2017-01-28T08:03:20.980Z,130
2017-01-28T08:04:25.185Z,135
2017-01-28T08:05:31.353Z,140
2017-01-28T08:06:36.530Z,150
2017-01-28T08:07:42.704Z,160
2017-01-28T08:08:49.024Z,170
2017-01-28T08:09:55.198Z,200
2017-01-28T08:11:01.447Z,200
2017-01-28T08:12:05.655Z,190
2017-01-28T08:13:10.862Z,170
2017-01-28T08:14:16.072Z,155
2017-01-28T08:15:22.273Z,150
2017-01-28T08:16:28.631Z,130
2017-01-28T08:17:34.821Z,130
2017-01-28T08:18:40.988Z,130
2017-01-28T08:19:46.164Z,140
2017-01-28T08:20:50.444Z,135
2017-01-28T08:21:56.620Z,135
2017-01-28T08:23:02.826Z,135
2017-01-28T08:24:09.048Z,140
2017-01-28T08:25:15.224Z,140
2017-01-28T08:26:19.437Z,145
2017-01-28T08:27:25.618Z,145
2017-01-28T08:28:30.885Z,145
2017-01-28T08:29:34.168Z,145
2017-01-28T08:30:39.373Z,145
2017-01-28T08:31:43.646Z,150
2017-01-28T08:32:49.843Z,150
2017-01-28T08:33:55.174Z,155
2017-01-28T08:34:59.414Z,155
2017-01-28T08:36:05.584Z,155
2017-01-28T08:37:09.785Z,160
2017-01-28T08:38:15.037Z,160
2017-01-28T08:39:20.229Z,165
2017-01-28T08:40:24.454Z,165
2017-01-28T08:41:29.672Z,170
2017-01-28T08:42:35.862Z,170
2017-01-28T08:43:42.007Z,170
2017-01-28T08:44:47.214Z,170
2017-01-28T08:45:52.393Z,170
2017-01-28T08:46:56.622Z,170
2017-01-28T08:48:00.861Z,175
2017-01-28T08:49:06.068Z,175
2017-01-28T08:50:12.228Z,175
2017-01-28T08:51:18.394Z,175
2017-01-28T08:52:21.663Z,180
2017-01-28T08:53:26.834Z,185
2017-01-28T08:54:32.023Z,180
2017-01-28T08:55:38.195Z,185
2017-01-28T08:56:44.359Z,185
2017-01-28T08:57:46.640Z,190
2017-01-28T08:58:50.877Z,195
2017-01-28T08:59:57.056Z,200
2017-01-28T09:01:03.228Z,210
2017-01-28T09:02:08.435Z,220
2017-01-28T09:03:12.685Z,230
2017-01-28T09:04:18.859Z,235
2017-01-28T09:05:24.142Z,245
2017-01-28T09:06:29.333Z,245
2017-01-28T09:07:33.571Z,255
2017-01-28T09:08:38.744Z,255
2017-01-28T09:09:44.923Z,260
2017-01-28T09:10:50.119Z,265
2017-01-28T09:11:55.341Z,270
2017-01-28T09:13:01.519Z,285
2017-01-28T09:14:06.705Z,275
2017-01-28T09:15:10.939Z,275
2017-01-28T09:16:15.177Z,275
2017-01-28T09:17:20.374Z,280
2017-01-28T09:18:26.628Z,280
2017-01-28T09:20:38.017Z,285
2017-01-28T09:21:43.208Z,285
2017-01-28T09:22:48.380Z,285
2017-01-28T09:23:52.616Z,285
2017-01-28T09:24:57.798Z,290
2017-01-28T09:26:02.038Z,295
2017-01-28T09:27:05.264Z,300
2017-01-28T09:28:09.552Z,300
2017-01-28T09:29:14.764Z,305
2017-01-28T09:30:20.021Z,310
2017-01-28T09:31:26.198Z,315
2017-01-28T09:32:32.461Z,320
2017-01-28T09:33:35.637Z,330
2017-01-28T09:34:40.835Z,345
2017-01-28T09:35:46.030Z,355
2017-01-28T09:36:51.200Z,365
2017-01-28T09:37:56.434Z,405
2017-01-28T09:39:01.769Z,425
2017-01-28T09:40:06.874Z,430
2017-01-28T09:41:11.101Z,420
2017-01-28T09:42:16.313Z,440
2017-01-28T09:43:21.543Z,440
2017-01-28T09:44:25.832Z,465
2017-01-28T09:45:31.037Z,480
2017-01-28T09:46:37.219Z,470
2017-01-28T09:47:43.397Z,455
2017-01-28T09:48:48.602Z,470
2017-01-28T09:49:52.841Z,480
2017-01-28T09:50:59.026Z,500
2017-01-28T09:52:02.337Z,510
2017-01-28T09:53:08.508Z,485
2017-01-28T09:54:14.678Z,435
2017-01-28T09:55:20.853Z,435
2017-01-28T09:56:26.056Z,460
2017-01-28T09:57:32.259Z,460
2017-01-28T09:58:38.413Z,400
2017-01-28T09:59:42.625Z,435
2017-01-28T10:00:48.807Z,435
2017-01-28T10:01:54.982Z,555
2017-01-28T10:03:01.154Z,665
2017-01-28T10:04:06.372Z,815
2017-01-28T10:05:11.574Z,840
2017-01-28T10:06:15.917Z,740
2017-01-28T10:07:21.035Z,785
2017-01-28T10:08:26.243Z,900
2017-01-28T10:09:32.420Z,865
2017-01-28T10:10:38.594Z,850
2017-01-28T10:11:43.801Z,770
2017-01-28T10:12:49.962Z,825
2017-01-28T10:13:56.144Z,515
2017-01-28T10:15:02.332Z,485
2017-01-28T10:16:07.588Z,400
2017-01-28T10:17:13.768Z,450
2017-01-28T10:18:19.978Z,605
2017-01-28T10:19:26.123Z,740
2017-01-28T10:20:32.286Z,870
2017-01-28T10:21:37.506Z,1095
2017-01-28T10:22:43.681Z,1120
2017-01-28T10:23:49.902Z,525
2017-01-28T10:24:55.064Z,515
2017-01-28T10:26:01.244Z,805
2017-01-28T10:27:07.419Z,905
2017-01-28T10:28:13.598Z,1410
2017-01-28T10:29:19.778Z,1490
2017-01-28T10:30:24.992Z,1365
2017-01-28T10:31:30.286Z,1420
2017-01-28T10:32:35.494Z,1440
2017-01-28T10:33:40.711Z,1460
2017-01-28T10:34:46.896Z,1495
2017-01-28T10:35:51.137Z,1490
2017-01-28T10:36:55.397Z,1570
2017-01-28T10:38:01.589Z,1600
2017-01-28T10:39:07.759Z,770
2017-01-28T10:40:12.075Z,825
2017-01-28T10:41:18.197Z,630
2017-01-28T10:42:24.382Z,1095
2017-01-28T10:43:28.627Z,1370
2017-01-28T10:44:33.846Z,1305
2017-01-28T10:45:39.064Z,1230
2017-01-28T10:46:44.333Z,1340
2017-01-28T10:47:50.501Z,1335
2017-01-28T10:48:56.686Z,1385
2017-01-28T10:50:01.875Z,1420
2017-01-28T10:51:08.057Z,1450
2017-01-28T10:52:14.236Z,430
2017-01-28T10:53:20.472Z,355
2017-01-28T10:54:26.611Z,320
2017-01-28T10:55:31.823Z,300
2017-01-28T10:56:38.002Z,290
2017-01-28T10:57:43.188Z,280
2017-01-28T10:58:48.396Z,280
2017-01-28T10:59:53.690Z,285
2017-01-28T11:00:58.908Z,295
2017-01-28T11:02:05.099Z,310
2017-01-28T11:03:10.299Z,330
2017-01-28T11:04:16.485Z,345
2017-01-28T11:05:21.696Z,365
2017-01-28T11:06:26.900Z,390
2017-01-28T11:07:32.133Z,400
2017-01-28T11:08:38.260Z,400
2017-01-28T11:09:43.468Z,400
2017-01-28T11:10:46.712Z,390
2017-01-28T11:11:52.991Z,380
2017-01-28T11:12:59.180Z,380
2017-01-28T11:14:04.446Z,370
2017-01-28T11:15:09.702Z,375
2017-01-28T11:16:15.843Z,380
2017-01-28T11:17:20.055Z,380
2017-01-28T11:18:25.273Z,375
2017-01-28T11:19:29.509Z,365
2017-01-28T11:20:33.748Z,355
2017-01-28T11:21:39.938Z,330
2017-01-28T11:22:46.146Z,315
2017-01-28T11:23:49.464Z,295
2017-01-28T11:24:54.674Z,290
2017-01-28T11:26:00.848Z,275
2017-01-28T11:27:07.075Z,270
2017-01-28T11:28:13.224Z,275
2017-01-28T11:29:19.403Z,265
2017-01-28T11:30:23.680Z,270
2017-01-28T11:31:27.887Z,270
2017-01-28T11:32:32.123Z,265
2017-01-28T11:33:37.337Z,260
2017-01-28T11:34:42.537Z,260
2017-01-28T11:35:46.787Z,245
2017-01-28T11:36:52.009Z,245
2017-01-28T11:37:57.218Z,250
2017-01-28T11:39:02.427Z,245
2017-01-28T11:40:08.593Z,250
2017-01-28T11:41:13.774Z,245
2017-01-28T11:42:19.984Z,250
2017-01-28T11:43:26.159Z,250
2017-01-28T11:44:32.326Z,255
2017-01-28T11:45:37.580Z,255
2017-01-28T11:46:41.789Z,255
2017-01-28T11:47:46.004Z,255
2017-01-28T11:48:51.218Z,260
2017-01-28T11:49:56.428Z,255
2017-01-28T11:51:01.654Z,250
2017-01-28T11:52:06.875Z,240
2017-01-28T11:53:12.048Z,235
2017-01-28T11:54:17.239Z,230
2017-01-28T11:55:23.417Z,220
2017-01-28T11:56:28.626Z,215
2017-01-28T11:57:34.798Z,210
2017-01-28T11:58:40.983Z,205
2017-01-28T11:59:46.174Z,205
2017-01-28T12:00:50.417Z,210
2017-01-28T12:01:55.638Z,215
2017-01-28T12:03:01.860Z,225
2017-01-28T12:04:07.026Z,235
2017-01-28T12:05:13.204Z,245
2017-01-28T12:06:18.432Z,255
2017-01-28T12:07:23.632Z,255
2017-01-28T12:08:26.895Z,260
2017-01-28T12:09:33.071Z,255
2017-01-28T12:10:38.252Z,255
2017-01-28T12:11:43.514Z,255
2017-01-28T12:12:48.696Z,255
2017-01-28T12:13:54.895Z,260
2017-01-28T12:15:01.076Z,260
2017-01-28T12:16:07.242Z,255
2017-01-28T12:17:13.421Z,255
2017-01-28T12:18:17.660Z,250
2017-01-28T12:19:23.830Z,250
2017-01-28T12:20:28.076Z,240
2017-01-28T12:21:33.285Z,240
2017-01-28T12:22:38.540Z,240
2017-01-28T12:23:43.749Z,245
2017-01-28T12:24:48.943Z,250
2017-01-28T12:25:54.148Z,250
2017-01-28T12:26:59.351Z,255
2017-01-28T12:28:04.559Z,260
2017-01-28T12:29:09.816Z,270
2017-01-28T12:30:15.960Z,275
2017-01-28T12:31:22.118Z,285
2017-01-28T12:32:28.308Z,290
2017-01-28T12:33:34.485Z,300
2017-01-28T12:34:40.658Z,300
2017-01-28T12:35:45.896Z,305
2017-01-28T12:36:52.067Z,300
2017-01-28T12:37:56.277Z,300
2017-01-28T12:39:02.480Z,295
2017-01-28T12:40:08.655Z,295
2017-01-28T12:41:14.919Z,295
2017-01-28T12:42:20.123Z,300
2017-01-28T12:43:26.414Z,300
2017-01-28T12:44:31.591Z,300
2017-01-28T12:45:37.760Z,300
2017-01-28T12:46:42.957Z,295
2017-01-28T12:47:48.140Z,290
2017-01-28T12:48:52.395Z,285
2017-01-28T12:49:57.542Z,285
2017-01-28T12:51:03.726Z,295
2017-01-28T12:52:08.912Z,295
2017-01-28T12:53:15.089Z,295
2017-01-28T12:54:19.355Z,295
2017-01-28T12:55:24.581Z,285
2017-01-28T12:56:30.752Z,265
2017-01-28T12:57:36.929Z,255
2017-01-28T12:58:42.136Z,250
2017-01-28T12:59:48.320Z,240
2017-01-28T13:00:53.535Z,230
2017-01-28T13:01:59.724Z,225
2017-01-28T13:03:04.922Z,225
2017-01-28T13:04:10.202Z,215
2017-01-28T13:05:15.364Z,215
2017-01-28T13:06:20.576Z,215
2017-01-28T13:07:25.775Z,220
2017-01-28T13:08:30.989Z,215
2017-01-28T13:09:37.163Z,215
2017-01-28T13:10:42.426Z,215
2017-01-28T13:11:48.544Z,210
2017-01-28T13:12:54.726Z,205
2017-01-28T13:13:58.935Z,200
2017-01-28T13:15:03.206Z,195
2017-01-28T13:16:08.411Z,190
2017-01-28T13:17:13.641Z,185
2017-01-28T13:18:17.839Z,185
2017-01-28T13:19:24.019Z,185
2017-01-28T13:20:29.216Z,180
2017-01-28T13:21:35.482Z,180
2017-01-28T13:22:41.645Z,180
2017-01-28T13:23:46.854Z,180
2017-01-28T13:24:53.030Z,180
2017-01-28T13:25:58.240Z,180
2017-01-28T13:27:04.418Z,175
2017-01-28T13:28:08.627Z,175
2017-01-28T13:29:13.901Z,170
2017-01-28T13:30:20.085Z,170
2017-01-28T13:31:26.344Z,170
2017-01-28T13:32:30.602Z,165
2017-01-28T13:33:36.777Z,165
2017-01-28T13:34:41.984Z,160
2017-01-28T13:35:48.163Z,160
2017-01-28T13:36:52.410Z,155
2017-01-28T13:37:58.593Z,150
2017-01-28T13:39:03.792Z,150
2017-01-28T13:40:08.996Z,150
2017-01-28T13:41:14.202Z,150
2017-01-28T13:42:19.410Z,150
2017-01-28T13:43:24.608Z,150
2017-01-28T13:44:28.824Z,145
2017-01-28T13:45:34.044Z,145
2017-01-28T13:46:39.266Z,140
2017-01-28T13:47:44.475Z,140
2017-01-28T13:48:50.654Z,135
2017-01-28T13:49:55.856Z,140
2017-01-28T13:51:00.198Z,140
2017-01-28T13:52:06.375Z,140
2017-01-28T13:53:09.648Z,135
2017-01-28T13:54:14.823Z,135
2017-01-28T13:55:21.045Z,135
2017-01-28T13:56:25.288Z,135
2017-01-28T13:57:31.467Z,130
2017-01-28T13:58:35.747Z,130
2017-01-28T13:59:41.937Z,130
2017-01-28T14:00:47.138Z,130
2017-01-28T14:01:53.321Z,130
2017-01-28T14:02:58.529Z,130
2017-01-28T14:04:04.697Z,125
2017-01-28T14:05:09.941Z,125
2017-01-28T14:06:14.214Z,125
2017-01-28T14:07:20.351Z,125
2017-01-28T14:08:25.566Z,120
2017-01-28T14:09:31.740Z,120
2017-01-28T14:10:37.913Z,120
2017-01-28T14:11:43.115Z,120
2017-01-28T14:12:48.346Z,120
2017-01-28T14:13:51.605Z,115
2017-01-28T14:14:56.812Z,115
2017-01-28T14:16:01.028Z,115
2017-01-28T14:17:05.268Z,115
2017-01-28T14:18:10.480Z,115
2017-01-28T14:19:16.675Z,115
2017-01-28T14:20:22.845Z,115
2017-01-28T14:21:28.048Z,115
2017-01-28T14:22:34.235Z,115
2017-01-28T14:23:39.442Z,115
2017-01-28T14:24:45.629Z,115
2017-01-28T14:25:49.922Z,115
2017-01-28T14:26:55.060Z,115
2017-01-28T14:28:00.274Z,115
2017-01-28T14:29:05.539Z,115
2017-01-28T14:30:10.878Z,115
2017-01-28T14:31:16.064Z,115
2017-01-28T14:32:22.236Z,115
2017-01-28T14:33:28.469Z,115
2017-01-28T14:34:34.649Z,115
2017-01-28T14:35:39.863Z,115
2017-01-28T14:36:46.036Z,115
2017-01-28T14:37:51.219Z,115
2017-01-28T14:38:55.431Z,115
2017-01-28T14:40:00.663Z,115
2017-01-28T14:41:06.831Z,115
2017-01-28T14:42:11.155Z,115
2017-01-28T14:43:17.327Z,115
2017-01-28T14:44:23.506Z,115
2017-01-28T14:45:29.788Z,115
2017-01-28T14:46:34.956Z,115
2017-01-28T14:47:40.190Z,115
2017-01-28T14:48:44.513Z,115
2017-01-28T14:49:49.625Z,110
2017-01-28T14:50:54.833Z,110
2017-01-28T14:52:00.998Z,110
2017-01-28T14:53:06.207Z,110
2017-01-28T14:54:11.440Z,105
2017-01-28T14:55:16.680Z,110
2017-01-28T14:56:21.890Z,110
2017-01-28T14:57:28.073Z,110
2017-01-28T14:58:34.252Z,110
2017-01-28T14:59:37.524Z,115
2017-01-28T15:00:43.692Z,120
2017-01-28T15:01:49.866Z,120
2017-01-28T15:02:55.063Z,125
2017-01-28T15:04:01.239Z,130
2017-01-28T15:05:07.417Z,130
2017-01-28T15:06:13.609Z,130
2017-01-28T15:07:19.778Z,130
2017-01-28T15:08:25.981Z,130
2017-01-28T15:09:32.157Z,130
2017-01-28T15:10:38.326Z,130
2017-01-28T15:11:44.625Z,130
2017-01-28T15:12:48.867Z,125
2017-01-28T15:13:55.057Z,125
2017-01-28T15:15:00.299Z,125
2017-01-28T15:16:05.503Z,120
2017-01-28T15:17:10.761Z,115
2017-01-28T15:18:15.970Z,115
2017-01-28T15:19:20.206Z,110
2017-01-28T15:20:25.417Z,110
2017-01-28T15:21:31.596Z,105
2017-01-28T15:22:37.768Z,100
2017-01-28T15:23:43.987Z,100
2017-01-28T15:24:49.144Z,100
2017-01-28T15:25:55.325Z,95
2017-01-28T15:27:00.566Z,95
2017-01-28T15:28:04.762Z,90
2017-01-28T15:29:10.937Z,90
2017-01-28T15:30:14.225Z,85
2017-01-28T15:31:20.394Z,85
2017-01-28T15:32:25.607Z,80